< < Back
Terminal Aerodrome Forecast


Current Version              Previous Versions:   1  2  3  4  5  6  7  8  9  

Terminal Aerodrome Forecast

383
FTUS42 KILM 301100
TAFILM
TAF
KILM 301127Z 3012/3112 05005KT P6SM FEW100
     FM301700 10008KT P6SM SCT050
     FM310600 07003KT P6SM SCT100 SCT200=



Latest METAR

680
SAUS70 KWBC 302300 RRB
MTRILM
METAR KILM 302253Z 09007KT 10SM CLR 27/18 A3002 RMK AO2 SLP167
T02670178


USA.gov is the U.S. government's official web portal to all federal, state and local government web resources and services.